createdAt,value
2023-01-27T00:03:25.396Z,-8.47
2023-01-27T00:08:30.485Z,-8.50
2023-01-27T00:13:34.225Z,-8.49
2023-01-27T00:18:38.336Z,-8.52
2023-01-27T00:24:00.629Z,-8.87
2023-01-27T00:29:04.506Z,-8.49
2023-01-27T00:34:11.448Z,-8.46
2023-01-27T00:39:15.752Z,-8.45
2023-01-27T00:44:20.414Z,-8.48
2023-01-27T00:49:24.794Z,-8.47
2023-01-27T00:54:28.684Z,-8.39
2023-01-27T00:59:33.205Z,-8.40
2023-01-27T01:04:37.073Z,-8.38
2023-01-27T01:09:41.954Z,-8.35
2023-01-27T01:14:45.698Z,-8.44
2023-01-27T01:19:50.722Z,-8.37
2023-01-27T01:24:55.442Z,-8.37
2023-01-27T01:29:59.621Z,-8.38
2023-01-27T01:35:03.570Z,-8.38
2023-01-27T01:40:09.265Z,-8.42
2023-01-27T01:45:34.562Z,-8.43
2023-01-27T01:50:41.797Z,-8.45
2023-01-27T01:55:47.085Z,-8.49
2023-01-27T02:00:51.177Z,-8.50
2023-01-27T02:05:57.059Z,-8.49
2023-01-27T02:11:00.957Z,-8.48
2023-01-27T02:16:05.018Z,-8.47
2023-01-27T02:21:09.864Z,-8.48
2023-01-27T02:26:22.826Z,-8.51
2023-01-27T02:31:26.934Z,-8.50
2023-01-27T02:36:36.972Z,-8.50
2023-01-27T02:41:46.899Z,-8.48
2023-01-27T02:46:50.879Z,-8.47
2023-01-27T02:51:54.743Z,-8.50
2023-01-27T02:57:01.726Z,-8.49
2023-01-27T03:02:08.244Z,-8.49
2023-01-27T03:07:12.315Z,-8.48
2023-01-27T03:12:22.402Z,-8.46
2023-01-27T03:17:45.887Z,-8.44
2023-01-27T03:22:51.306Z,-8.44
2023-01-27T03:27:58.345Z,-8.41
2023-01-27T03:33:09.160Z,-8.47
2023-01-27T03:38:50.974Z,-8.60
2023-01-27T03:44:13.519Z,-8.49
2023-01-27T03:49:17.391Z,-8.46
2023-01-27T03:54:21.347Z,-8.47
2023-01-27T03:59:24.969Z,-8.48
2023-01-27T04:04:47.557Z,-8.51
2023-01-27T04:09:52.761Z,-8.57
2023-01-27T04:14:56.647Z,-8.62
2023-01-27T04:20:00.697Z,-8.52
2023-01-27T04:25:04.847Z,-8.53
2023-01-27T04:30:09.537Z,-8.56
2023-01-27T04:35:13.629Z,-8.64
2023-01-27T04:40:17.552Z,-8.62
2023-01-27T04:45:21.484Z,-8.65
2023-01-27T04:50:25.179Z,-8.66
2023-01-27T04:55:28.994Z,-8.71
2023-01-27T05:00:33.388Z,-8.80
2023-01-27T05:05:38.185Z,-8.88
2023-01-27T05:10:45.885Z,-8.95
2023-01-27T05:15:49.969Z,-9.09
2023-01-27T05:20:53.937Z,-9.03
2023-01-27T05:25:57.618Z,-9.02
2023-01-27T05:31:10.959Z,-9.05
2023-01-27T05:36:17.521Z,-9.03
2023-01-27T05:41:22.761Z,-8.97
2023-01-27T05:46:30.143Z,-8.96
2023-01-27T05:51:40.509Z,-8.98
2023-01-27T05:56:44.294Z,-9.03
2023-01-27T06:01:48.301Z,-9.09
2023-01-27T06:06:52.299Z,-9.11
2023-01-27T06:11:56.157Z,-9.10
2023-01-27T06:17:02.668Z,-9.11
2023-01-27T06:22:06.299Z,-9.13
2023-01-27T06:27:11.770Z,-9.11
2023-01-27T06:32:15.553Z,-9.09
2023-01-27T06:37:19.453Z,-9.10
2023-01-27T06:42:23.442Z,-9.13
2023-01-27T06:47:27.164Z,-9.16
2023-01-27T06:52:31.110Z,-9.16
2023-01-27T06:57:34.802Z,-9.16
2023-01-27T07:02:38.768Z,-9.15
2023-01-27T07:07:42.940Z,-9.17
2023-01-27T07:12:46.760Z,-9.21
2023-01-27T07:17:50.775Z,-9.17
2023-01-27T07:22:54.501Z,-9.18
2023-01-27T07:28:00.582Z,-9.20
2023-01-27T07:33:13.810Z,-9.20
2023-01-27T07:38:17.538Z,-9.20
2023-01-27T07:43:21.557Z,-9.24
2023-01-27T07:48:25.502Z,-9.23
2023-01-27T07:53:29.348Z,-9.21
2023-01-27T07:58:33.270Z,-9.30
2023-01-27T08:03:37.518Z,-9.33
2023-01-27T08:08:41.698Z,-9.25
2023-01-27T08:13:45.493Z,-9.25
2023-01-27T08:18:50.530Z,-9.27
2023-01-27T08:23:54.690Z,-9.29
2023-01-27T08:28:58.723Z,-9.33
2023-01-27T08:34:02.829Z,-9.31
2023-01-27T08:39:06.650Z,-9.30
2023-01-27T08:44:10.660Z,-9.74
2023-01-27T08:49:14.803Z,-9.31
2023-01-27T08:54:18.684Z,-9.36
2023-01-27T08:59:24.025Z,-9.38
2023-01-27T09:04:29.943Z,-9.43
2023-01-27T09:09:33.994Z,-9.44
2023-01-27T09:14:38.676Z,-9.45
2023-01-27T09:19:42.733Z,-9.46
2023-01-27T09:24:46.467Z,-9.48
2023-01-27T09:29:50.327Z,-9.47
2023-01-27T09:34:54.498Z,-9.51
2023-01-27T09:40:05.039Z,-9.54
2023-01-27T09:45:31.715Z,-9.56
2023-01-27T09:51:19.870Z,-9.53
2023-01-27T09:56:23.413Z,-9.54
2023-01-27T10:01:42.519Z,-9.57
2023-01-27T10:07:17.265Z,-9.61
2023-01-27T10:12:23.911Z,-9.60
2023-01-27T10:17:53.773Z,-9.61
2023-01-27T10:23:11.177Z,-9.61
2023-01-27T10:28:18.105Z,-9.62
2023-01-27T10:33:28.705Z,-9.63
2023-01-27T10:39:02.153Z,-9.70
2023-01-27T10:44:31.796Z,-9.64
2023-01-27T10:49:42.007Z,-9.69
2023-01-27T10:55:00.497Z,-9.65
2023-01-27T11:01:12.980Z,-9.66
2023-01-27T11:05:53.986Z,-9.68
2023-01-27T11:11:20.038Z,-9.68
2023-01-27T11:16:26.635Z,-9.70
2023-01-27T11:21:33.708Z,-9.73
2023-01-27T11:26:45.500Z,-9.69
2023-01-27T11:32:11.599Z,-9.70
2023-01-27T11:37:20.520Z,-9.72
2023-01-27T11:42:32.953Z,-9.71
2023-01-27T11:47:40.726Z,-9.70
2023-01-27T11:52:50.693Z,-9.84
2023-01-27T11:58:15.401Z,-9.77
2023-01-27T12:03:49.276Z,-9.79
2023-01-27T12:08:53.339Z,-9.77
2023-01-27T12:14:07.753Z,-9.78
2023-01-27T12:19:36.460Z,-9.79
2023-01-27T12:24:51.022Z,-9.91
2023-01-27T12:29:59.310Z,-9.80
2023-01-27T12:35:03.767Z,-9.78
2023-01-27T12:40:18.373Z,-9.76
2023-01-27T12:45:25.955Z,-9.74
2023-01-27T12:50:35.929Z,-9.74
2023-01-27T12:55:43.022Z,-9.74
2023-01-27T13:00:47.173Z,-9.71
2023-01-27T13:05:56.285Z,-9.70
2023-01-27T13:11:03.218Z,-9.71
2023-01-27T13:16:31.673Z,-9.70
2023-01-27T13:21:38.919Z,-9.71
2023-01-27T13:26:43.351Z,-9.68
2023-01-27T13:32:07.755Z,-10.07
2023-01-27T13:37:33.801Z,-9.66
2023-01-27T13:42:57.535Z,-9.65
2023-01-27T13:48:19.250Z,-9.81
2023-01-27T13:53:23.207Z,-9.68
2023-01-27T13:58:32.704Z,-9.65
2023-01-27T14:03:46.863Z,-9.65
2023-01-27T14:09:24.355Z,-9.63
2023-01-27T14:14:34.052Z,-9.62
2023-01-27T14:20:01.719Z,-9.61
2023-01-27T14:25:25.151Z,-9.76
2023-01-27T14:30:41.259Z,-9.77
2023-01-27T14:35:52.392Z,-9.67
2023-01-27T14:41:21.127Z,-9.59
2023-01-27T14:46:37.045Z,-9.61
2023-01-27T14:51:48.558Z,-9.61
2023-01-27T14:57:10.380Z,-9.59
2023-01-27T15:02:44.998Z,-9.60
2023-01-27T15:08:17.230Z,-9.60
2023-01-27T15:13:24.815Z,-9.64
2023-01-27T15:18:43.468Z,-9.61
2023-01-27T15:24:26.342Z,-9.62
2023-01-27T15:29:32.618Z,-9.63
2023-01-27T15:34:36.401Z,-9.63
2023-01-27T15:40:04.054Z,-9.61
2023-01-27T15:45:27.706Z,-9.61
2023-01-27T15:50:34.149Z,-9.59
2023-01-27T15:55:39.467Z,-9.59
2023-01-27T16:00:51.379Z,-9.63
2023-01-27T16:06:10.688Z,-9.61
2023-01-27T16:11:30.221Z,-9.63
2023-01-27T16:16:36.941Z,-9.73
2023-01-27T16:21:59.536Z,-9.58
2023-01-27T16:27:44.030Z,-9.59
2023-01-27T16:33:08.218Z,-9.60
2023-01-27T16:38:17.828Z,-9.58
2023-01-27T16:43:33.378Z,-9.63
2023-01-27T16:48:49.744Z,-9.55
2023-01-27T16:54:01.031Z,-9.55
2023-01-27T16:59:21.971Z,-9.55
2023-01-27T17:04:28.205Z,-9.53
2023-01-27T17:09:36.026Z,-9.55
2023-01-27T17:14:47.071Z,-9.53
2023-01-27T17:19:54.088Z,-9.54
2023-01-27T17:25:04.676Z,-9.57
2023-01-27T17:30:11.296Z,-9.61
2023-01-27T17:35:27.255Z,-9.59
2023-01-27T17:40:40.344Z,-9.62
2023-01-27T17:45:44.476Z,-9.60
2023-01-27T17:50:48.188Z,-9.62
2023-01-27T17:55:54.388Z,-9.64
2023-01-27T18:00:58.200Z,-9.64
2023-01-27T18:06:05.179Z,-9.64
2023-01-27T18:11:20.707Z,-9.65
2023-01-27T18:16:25.304Z,-9.62
2023-01-27T18:21:29.172Z,-9.67
2023-01-27T18:26:39.202Z,-9.60
2023-01-27T18:31:49.017Z,-9.61
2023-01-27T18:36:59.968Z,-9.61
2023-01-27T18:42:10.741Z,-9.67
2023-01-27T18:47:20.461Z,-9.60
2023-01-27T18:52:24.986Z,-9.61
2023-01-27T18:57:29.345Z,-9.62
2023-01-27T19:02:33.352Z,-9.63
2023-01-27T19:07:37.702Z,-9.62
2023-01-27T19:12:41.640Z,-9.63
2023-01-27T19:17:46.865Z,-9.61
2023-01-27T19:22:52.235Z,-9.62
2023-01-27T19:28:03.407Z,-9.61
2023-01-27T19:33:22.614Z,-9.64
2023-01-27T19:38:28.287Z,-9.64
2023-01-27T19:43:33.168Z,-9.64
2023-01-27T19:48:36.805Z,-9.62
2023-01-27T19:53:40.935Z,-9.65
2023-01-27T19:58:54.439Z,-9.66
2023-01-27T20:03:58.278Z,-9.65
2023-01-27T20:09:04.402Z,-9.64
2023-01-27T20:14:19.888Z,-9.67
2023-01-27T20:19:23.769Z,-9.65
2023-01-27T20:24:27.858Z,-9.63
2023-01-27T20:29:34.775Z,-9.61
2023-01-27T20:34:39.125Z,-9.65
2023-01-27T20:39:42.961Z,-9.60
2023-01-27T20:44:46.660Z,-9.62
2023-01-27T20:49:50.574Z,-9.63
2023-01-27T20:54:54.837Z,-9.63
2023-01-27T21:00:03.188Z,-9.64
2023-01-27T21:05:09.019Z,-9.66
2023-01-27T21:10:13.253Z,-9.63
2023-01-27T21:15:17.215Z,-9.60
2023-01-27T21:20:21.101Z,-9.59
2023-01-27T21:25:25.136Z,-9.61
2023-01-27T21:30:30.576Z,-9.59
2023-01-27T21:35:34.711Z,-9.60
2023-01-27T21:40:40.883Z,-9.59
2023-01-27T21:45:44.866Z,-9.69
2023-01-27T21:50:52.393Z,-9.60
2023-01-27T21:55:56.239Z,-9.60
2023-01-27T22:01:06.505Z,-9.58
2023-01-27T22:06:11.131Z,-9.59
2023-01-27T22:11:14.894Z,-9.59
2023-01-27T22:16:19.155Z,-9.56
2023-01-27T22:21:23.128Z,-9.55
2023-01-27T22:26:26.954Z,-9.67
2023-01-27T22:31:31.011Z,-9.57
2023-01-27T22:36:35.082Z,-9.55
2023-01-27T22:41:39.124Z,-9.62
2023-01-27T22:46:43.598Z,-9.58
2023-01-27T22:51:49.057Z,-9.62
2023-01-27T22:56:52.956Z,-9.61
2023-01-27T23:01:56.754Z,-9.62
2023-01-27T23:07:00.645Z,-9.65
2023-01-27T23:12:04.768Z,-9.63
2023-01-27T23:17:08.784Z,-9.64
2023-01-27T23:22:12.799Z,-9.64
2023-01-27T23:27:17.525Z,-9.63
2023-01-27T23:32:21.608Z,-9.66
2023-01-27T23:37:25.496Z,-9.70
2023-01-27T23:42:29.330Z,-9.61
2023-01-27T23:47:33.352Z,-10.01
2023-01-27T23:52:37.173Z,-9.57
2023-01-27T23:57:41.708Z,-9.56
